createdAt,value
2018-08-10T00:00:35.777Z,59.40
2018-08-10T00:03:04.846Z,59.40
2018-08-10T00:05:33.338Z,59.30
2018-08-10T00:08:01.665Z,58.80
2018-08-10T00:10:30.043Z,58.00
2018-08-10T00:12:58.507Z,57.70
2018-08-10T00:15:26.857Z,58.50
2018-08-10T00:17:55.246Z,58.50
2018-08-10T00:20:23.800Z,59.10
2018-08-10T00:22:52.157Z,59.00
2018-08-10T00:25:20.620Z,58.80
2018-08-10T00:27:50.000Z,58.60
2018-08-10T00:30:19.331Z,59.20
2018-08-10T00:32:48.915Z,58.90
2018-08-10T00:35:17.418Z,59.50
2018-08-10T00:37:47.456Z,59.20
2018-08-10T00:40:21.841Z,59.10
2018-08-10T00:42:50.297Z,58.20
2018-08-10T00:45:19.184Z,58.80
2018-08-10T00:47:48.163Z,59.30
2018-08-10T00:50:17.289Z,60.00
2018-08-10T00:52:46.428Z,59.60
2018-08-10T00:55:16.334Z,58.60
2018-08-10T00:57:45.373Z,58.60
2018-08-10T01:00:22.158Z,57.90
2018-08-10T01:02:51.365Z,58.10
2018-08-10T01:05:19.787Z,58.50
2018-08-10T01:07:48.277Z,58.00
2018-08-10T01:10:18.205Z,57.80
2018-08-10T01:12:46.710Z,57.50
2018-08-10T01:15:16.337Z,56.40
2018-08-10T01:17:45.401Z,55.30
2018-08-10T01:20:18.277Z,55.80
2018-08-10T01:22:52.270Z,55.80
2018-08-10T01:25:22.569Z,56.30
2018-08-10T01:27:56.562Z,56.20
2018-08-10T01:30:26.454Z,56.20
2018-08-10T01:32:54.824Z,56.00
2018-08-10T01:35:24.013Z,56.30
2018-08-10T01:37:52.736Z,56.00
2018-08-10T01:40:21.113Z,55.70
2018-08-10T01:42:49.482Z,55.20
2018-08-10T01:45:18.044Z,55.20
2018-08-10T01:47:46.478Z,55.60
2018-08-10T01:50:14.857Z,55.60
2018-08-10T01:52:43.225Z,56.00
2018-08-10T01:55:12.093Z,56.00
2018-08-10T01:57:40.628Z,55.30
2018-08-10T02:00:09.795Z,56.00
2018-08-10T02:02:38.297Z,56.80
2018-08-10T02:05:09.677Z,56.70
2018-08-10T02:07:38.769Z,56.20
2018-08-10T02:10:11.124Z,55.40
2018-08-10T02:12:40.418Z,55.40
2018-08-10T02:15:12.789Z,54.90
2018-08-10T02:17:41.161Z,55.80
2018-08-10T02:20:16.302Z,55.40
2018-08-10T02:22:44.978Z,56.10
2018-08-10T02:25:15.325Z,56.20
2018-08-10T02:27:44.724Z,56.00
2018-08-10T02:30:14.421Z,56.00
2018-08-10T02:32:43.349Z,55.00
2018-08-10T02:35:11.810Z,55.00
2018-08-10T02:37:40.659Z,55.30
2018-08-10T02:40:18.100Z,54.30
2018-08-10T02:42:47.389Z,53.60
2018-08-10T02:45:16.359Z,54.30
2018-08-10T02:47:45.375Z,53.10
2018-08-10T02:50:13.809Z,53.60
2018-08-10T02:52:42.282Z,53.10
2018-08-10T02:55:11.473Z,53.00
2018-08-10T02:57:40.107Z,53.60
2018-08-10T03:00:11.307Z,53.20
2018-08-10T03:02:39.735Z,52.80
2018-08-10T03:05:09.114Z,53.00
2018-08-10T03:07:37.744Z,52.80
2018-08-10T03:10:07.540Z,53.30
2018-08-10T03:12:36.094Z,53.00
2018-08-10T03:15:06.665Z,52.60
2018-08-10T03:17:35.038Z,51.90
2018-08-10T03:20:04.115Z,52.50
2018-08-10T03:22:32.462Z,52.50
2018-08-10T03:25:00.839Z,53.60
2018-08-10T03:27:29.245Z,54.20
2018-08-10T03:29:57.586Z,53.60
2018-08-10T03:32:25.934Z,54.10
2018-08-10T03:34:54.278Z,53.20
2018-08-10T03:37:22.678Z,53.20
2018-08-10T03:39:51.058Z,54.10
2018-08-10T03:42:19.449Z,53.70
2018-08-10T03:44:47.802Z,52.50
2018-08-10T03:47:16.276Z,54.10
2018-08-10T03:49:44.698Z,54.30
2018-08-10T03:52:13.001Z,53.60
2018-08-10T03:54:41.430Z,54.00
2018-08-10T03:57:09.810Z,54.90
2018-08-10T03:59:38.202Z,54.40
2018-08-10T04:02:06.765Z,54.20
2018-08-10T04:04:35.187Z,53.80
2018-08-10T04:07:03.751Z,53.50
2018-08-10T04:09:32.121Z,53.60
2018-08-10T04:12:01.128Z,53.90
2018-08-10T04:14:29.483Z,54.30
2018-08-10T04:16:57.858Z,55.20
2018-08-10T04:19:26.221Z,55.90
2018-08-10T04:21:54.742Z,55.10
2018-08-10T04:24:23.189Z,54.40
2018-08-10T04:26:51.555Z,53.50
2018-08-10T04:29:19.979Z,52.90
2018-08-10T04:31:48.401Z,53.40
2018-08-10T04:34:16.856Z,53.90
2018-08-10T04:36:45.269Z,52.90
2018-08-10T04:39:14.022Z,53.10
2018-08-10T04:41:42.937Z,53.80
2018-08-10T04:44:11.656Z,54.10
2018-08-10T04:46:40.024Z,55.10
2018-08-10T04:49:09.386Z,55.20
2018-08-10T04:51:37.906Z,55.20
2018-08-10T04:54:06.345Z,54.90
2018-08-10T04:56:35.033Z,55.40
2018-08-10T04:59:03.483Z,55.30
2018-08-10T05:01:31.846Z,54.40
2018-08-10T05:04:00.247Z,55.40
2018-08-10T05:06:28.682Z,56.10
2018-08-10T05:08:57.077Z,55.60
2018-08-10T05:11:25.529Z,55.20
2018-08-10T05:13:53.913Z,55.00
2018-08-10T05:16:22.315Z,55.10
2018-08-10T05:18:50.698Z,55.30
2018-08-10T05:21:19.085Z,55.10
2018-08-10T05:23:47.508Z,54.80
2018-08-10T05:26:15.857Z,54.20
2018-08-10T05:28:44.305Z,55.00
2018-08-10T05:31:12.612Z,54.50
2018-08-10T05:33:41.106Z,53.80
2018-08-10T05:36:09.513Z,55.40
2018-08-10T05:38:37.877Z,56.60
2018-08-10T05:41:06.329Z,55.50
2018-08-10T05:43:34.944Z,55.50
2018-08-10T05:46:03.498Z,55.60
2018-08-10T05:48:37.823Z,56.20
2018-08-10T05:51:07.469Z,56.30
2018-08-10T05:53:35.802Z,56.80
2018-08-10T05:56:04.230Z,56.80
2018-08-10T05:58:39.237Z,56.00
2018-08-10T06:01:07.915Z,55.60
2018-08-10T06:03:36.486Z,55.60
2018-08-10T06:06:05.945Z,53.70
2018-08-10T06:08:34.260Z,53.20
2018-08-10T06:11:02.693Z,54.20
2018-08-10T06:13:31.262Z,54.60
2018-08-10T06:15:59.642Z,54.40
2018-08-10T06:18:27.988Z,54.70
2018-08-10T06:20:56.352Z,55.00
2018-08-10T06:23:24.794Z,53.40
2018-08-10T06:25:53.197Z,52.30
2018-08-10T06:28:21.600Z,53.60
2018-08-10T06:30:49.988Z,53.50
2018-08-10T06:33:18.422Z,53.30
2018-08-10T06:35:46.942Z,53.80
2018-08-10T06:38:15.352Z,53.00
2018-08-10T06:40:43.723Z,53.60
2018-08-10T06:43:12.103Z,53.30
2018-08-10T06:45:40.508Z,53.60
2018-08-10T06:48:08.873Z,53.40
2018-08-10T06:50:37.287Z,53.50
2018-08-10T06:53:05.874Z,52.30
2018-08-10T06:55:34.301Z,52.40
2018-08-10T06:58:02.777Z,52.70
2018-08-10T07:00:31.164Z,51.80
2018-08-10T07:03:00.380Z,50.90
2018-08-10T07:05:28.832Z,49.60
2018-08-10T07:07:57.315Z,49.30
2018-08-10T07:10:25.839Z,49.60
2018-08-10T07:12:54.308Z,49.70
2018-08-10T07:15:23.561Z,49.40
2018-08-10T07:17:51.940Z,48.80
2018-08-10T07:20:20.442Z,49.60
2018-08-10T07:22:48.922Z,48.90
2018-08-10T07:25:17.319Z,48.80
2018-08-10T07:27:45.656Z,48.60
2018-08-10T07:30:14.063Z,47.10
2018-08-10T07:32:42.462Z,48.50
2018-08-10T07:35:11.360Z,49.90
2018-08-10T07:37:39.805Z,49.50
2018-08-10T07:40:08.338Z,49.10
2018-08-10T07:42:36.778Z,48.50
2018-08-10T07:45:11.871Z,48.20
2018-08-10T07:47:40.445Z,47.00
2018-08-10T07:50:08.841Z,47.30
2018-08-10T07:52:37.277Z,46.40
2018-08-10T07:55:05.596Z,46.80
2018-08-10T07:57:34.037Z,45.60
2018-08-10T08:00:02.515Z,46.00
2018-08-10T08:02:30.976Z,44.80
2018-08-10T08:04:59.426Z,45.60
2018-08-10T08:07:27.800Z,45.90
2018-08-10T08:09:56.204Z,45.90
2018-08-10T08:12:24.725Z,44.70
2018-08-10T08:14:53.167Z,44.90
2018-08-10T08:17:21.627Z,45.00
2018-08-10T08:19:50.088Z,44.20
2018-08-10T08:22:20.358Z,45.20
2018-08-10T08:24:49.218Z,43.20
2018-08-10T08:27:18.554Z,42.80
2018-08-10T08:29:46.983Z,43.10
2018-08-10T08:32:15.385Z,42.60
2018-08-10T08:34:43.891Z,41.20
2018-08-10T08:37:12.230Z,42.20
2018-08-10T08:40:48.267Z,42.10
2018-08-10T08:44:37.501Z,42.80
2018-08-10T08:47:06.499Z,41.40
2018-08-10T08:49:35.906Z,41.00
2018-08-10T08:52:04.871Z,40.90
2018-08-10T08:55:39.238Z,39.20
2018-08-10T08:58:08.390Z,36.40
2018-08-10T09:00:37.299Z,38.80
2018-08-10T09:03:05.811Z,38.50
2018-08-10T09:05:34.342Z,38.40
2018-08-10T09:08:02.813Z,38.70
2018-08-10T09:10:31.256Z,39.20
2018-08-10T09:12:59.641Z,38.80
2018-08-10T09:15:27.981Z,38.90
2018-08-10T09:17:56.478Z,39.40
2018-08-10T09:20:25.519Z,38.40
2018-08-10T09:22:53.969Z,38.10
2018-08-10T09:25:22.416Z,38.00
2018-08-10T09:27:51.445Z,37.30
2018-08-10T09:30:19.905Z,37.20
2018-08-10T09:32:48.295Z,39.30
2018-08-10T09:35:16.662Z,40.30
2018-08-10T09:37:45.187Z,39.60
2018-08-10T09:40:18.317Z,39.20
2018-08-10T09:42:47.020Z,39.00
2018-08-10T09:45:16.195Z,36.60
2018-08-10T09:47:45.911Z,36.70
2018-08-10T09:50:15.499Z,37.70
2018-08-10T09:53:17.321Z,38.10
2018-08-10T09:55:45.820Z,38.20
2018-08-10T09:58:15.701Z,38.20
2018-08-10T10:00:49.812Z,37.70
2018-08-10T10:03:25.313Z,37.60
2018-08-10T10:05:58.580Z,38.00
2018-08-10T10:08:27.157Z,38.10
2018-08-10T10:10:55.642Z,37.70
2018-08-10T10:13:24.072Z,37.90
2018-08-10T10:15:52.578Z,36.80
2018-08-10T10:18:20.926Z,36.60
2018-08-10T10:20:49.368Z,36.70
2018-08-10T10:23:17.773Z,36.70
2018-08-10T10:25:46.186Z,36.30
2018-08-10T10:28:14.537Z,36.70
2018-08-10T10:30:42.876Z,36.40
2018-08-10T10:33:11.296Z,37.10
2018-08-10T10:35:39.746Z,36.70
2018-08-10T10:38:08.229Z,36.50
2018-08-10T10:40:36.614Z,36.70
2018-08-10T10:43:05.039Z,36.80
2018-08-10T10:45:33.498Z,36.90
2018-08-10T10:48:01.961Z,37.60
2018-08-10T10:50:30.292Z,37.00
2018-08-10T10:52:58.783Z,36.50
2018-08-10T10:55:27.188Z,36.30
2018-08-10T10:58:02.162Z,36.70
2018-08-10T11:00:30.636Z,36.60
2018-08-10T11:02:58.967Z,37.80
2018-08-10T11:05:27.325Z,36.90
2018-08-10T11:07:55.683Z,36.80
2018-08-10T11:10:24.009Z,36.20
2018-08-10T11:12:52.374Z,36.50
2018-08-10T11:15:20.784Z,36.40
2018-08-10T11:17:49.284Z,35.70
2018-08-10T11:20:17.787Z,35.90
2018-08-10T11:22:46.097Z,35.90
2018-08-10T11:25:14.932Z,35.10
2018-08-10T11:27:44.036Z,35.80
2018-08-10T11:30:12.865Z,35.60
2018-08-10T11:32:41.321Z,35.10
2018-08-10T11:35:09.751Z,35.30
2018-08-10T11:37:38.206Z,35.40
2018-08-10T11:40:10.534Z,35.90
2018-08-10T11:42:39.103Z,36.80
2018-08-10T11:45:10.802Z,36.30
2018-08-10T11:47:39.361Z,36.30
2018-08-10T11:50:07.905Z,35.90
2018-08-10T11:52:36.361Z,36.90
2018-08-10T11:55:05.756Z,36.20
2018-08-10T11:57:34.272Z,36.40
2018-08-10T12:00:02.716Z,35.60
2018-08-10T12:02:31.965Z,35.00
2018-08-10T12:05:00.430Z,35.30
2018-08-10T12:07:28.849Z,35.50
2018-08-10T12:09:57.189Z,35.20
2018-08-10T12:12:25.619Z,35.10
2018-08-10T12:14:53.990Z,35.20
2018-08-10T12:17:22.296Z,35.00
2018-08-10T12:19:50.619Z,34.70
2018-08-10T12:22:18.964Z,34.70
2018-08-10T12:24:47.474Z,34.50
2018-08-10T12:27:15.753Z,34.20
2018-08-10T12:29:44.144Z,34.10
2018-08-10T12:32:12.707Z,34.40
2018-08-10T12:34:41.128Z,34.20
2018-08-10T12:37:09.473Z,34.60
2018-08-10T12:39:37.831Z,34.80
2018-08-10T12:42:06.258Z,36.10
2018-08-10T12:44:34.557Z,35.00
2018-08-10T12:47:02.998Z,34.40
2018-08-10T12:49:31.409Z,34.50
2018-08-10T12:51:59.813Z,35.40
2018-08-10T12:54:28.252Z,35.40
2018-08-10T12:56:56.603Z,34.80
2018-08-10T12:59:24.979Z,34.30
2018-08-10T13:01:53.457Z,34.90
2018-08-10T13:04:21.815Z,34.60
2018-08-10T13:06:50.255Z,35.10
2018-08-10T13:09:18.631Z,34.30
2018-08-10T13:11:47.070Z,34.90
2018-08-10T13:14:15.525Z,34.90
2018-08-10T13:16:43.954Z,35.20
2018-08-10T13:19:12.389Z,36.40
2018-08-10T13:21:40.885Z,37.30
2018-08-10T13:24:09.555Z,35.70
2018-08-10T13:26:38.009Z,35.50
2018-08-10T13:29:06.544Z,34.80
2018-08-10T13:31:34.961Z,34.60
2018-08-10T13:34:03.485Z,34.60
2018-08-10T13:36:31.895Z,34.00
2018-08-10T13:39:00.933Z,33.90
2018-08-10T13:41:29.353Z,34.50
2018-08-10T13:43:57.816Z,34.40
2018-08-10T13:46:26.269Z,33.10
2018-08-10T13:48:54.726Z,32.80
2018-08-10T13:51:23.169Z,32.80
2018-08-10T13:53:51.637Z,32.80
2018-08-10T13:56:20.091Z,33.20
2018-08-10T13:58:48.630Z,34.50
2018-08-10T14:01:16.989Z,33.50
2018-08-10T14:03:45.509Z,33.10
2018-08-10T14:06:14.034Z,33.50
2018-08-10T14:08:42.417Z,33.70
2018-08-10T14:11:11.013Z,33.40
2018-08-10T14:13:39.589Z,33.60
2018-08-10T14:16:08.017Z,33.00
2018-08-10T14:18:36.501Z,33.20
2018-08-10T14:21:04.943Z,33.40
2018-08-10T14:23:34.043Z,33.50
2018-08-10T14:26:02.537Z,33.50
2018-08-10T14:28:30.984Z,33.60
2018-08-10T14:30:59.389Z,33.70
2018-08-10T14:33:27.888Z,33.70
2018-08-10T14:35:56.265Z,33.10
2018-08-10T14:38:24.629Z,33.60
2018-08-10T14:40:53.104Z,33.40
2018-08-10T14:43:21.462Z,33.30
2018-08-10T14:45:49.865Z,35.10
2018-08-10T14:48:18.416Z,33.20
2018-08-10T14:50:47.341Z,32.70
2018-08-10T14:53:15.722Z,32.60
2018-08-10T14:55:44.088Z,32.90
2018-08-10T14:58:12.470Z,33.10
2018-08-10T15:00:41.025Z,34.00
2018-08-10T15:03:09.598Z,33.80
2018-08-10T15:05:37.991Z,34.40
2018-08-10T15:08:06.506Z,32.50
2018-08-10T15:10:34.973Z,33.80
2018-08-10T15:13:03.552Z,32.70
2018-08-10T15:15:31.817Z,33.00
2018-08-10T15:18:00.298Z,32.60
2018-08-10T15:20:28.682Z,32.10
2018-08-10T15:22:57.139Z,32.30
2018-08-10T15:25:25.581Z,32.30
2018-08-10T15:27:53.949Z,32.80
2018-08-10T15:30:22.386Z,33.10
2018-08-10T15:32:50.876Z,32.20
2018-08-10T15:35:19.281Z,32.70
2018-08-10T15:37:47.741Z,32.00
2018-08-10T15:40:17.744Z,31.40
2018-08-10T15:42:46.158Z,30.60
2018-08-10T15:45:15.741Z,30.40
2018-08-10T15:47:44.760Z,31.90
2018-08-10T15:50:13.497Z,31.40
2018-08-10T15:52:43.081Z,30.70
2018-08-10T15:55:12.069Z,31.10
2018-08-10T15:57:41.070Z,30.10
2018-08-10T16:00:13.262Z,30.10
2018-08-10T16:02:41.734Z,30.30
2018-08-10T16:05:10.849Z,30.80
2018-08-10T16:07:40.518Z,29.90
2018-08-10T16:10:09.304Z,30.40
2018-08-10T16:12:38.258Z,30.70
2018-08-10T16:15:10.338Z,31.20
2018-08-10T16:17:38.829Z,31.00
2018-08-10T16:20:09.622Z,30.00
2018-08-10T16:22:38.194Z,30.00
2018-08-10T16:25:08.879Z,29.90
2018-08-10T16:27:37.417Z,29.90
2018-08-10T16:30:08.305Z,30.00
2018-08-10T16:32:36.933Z,30.90
2018-08-10T16:35:07.324Z,30.40
2018-08-10T16:37:35.829Z,30.20
2018-08-10T16:40:05.403Z,30.40
2018-08-10T16:42:33.818Z,31.00
2018-08-10T16:45:02.349Z,31.80
2018-08-10T16:47:30.783Z,31.80
2018-08-10T16:49:59.166Z,31.60
2018-08-10T16:52:27.705Z,32.20
2018-08-10T16:54:56.053Z,32.40
2018-08-10T16:57:24.539Z,33.20
2018-08-10T16:59:53.641Z,32.40
2018-08-10T17:02:22.106Z,31.90
2018-08-10T17:04:50.545Z,31.80
2018-08-10T17:07:18.953Z,33.00
2018-08-10T17:09:47.373Z,33.10
2018-08-10T17:12:15.725Z,33.40
2018-08-10T17:14:44.246Z,33.00
2018-08-10T17:17:12.655Z,32.30
2018-08-10T17:19:41.079Z,31.70
2018-08-10T17:22:09.565Z,32.20
2018-08-10T17:24:37.994Z,32.10
2018-08-10T17:27:07.336Z,32.40
2018-08-10T17:29:35.789Z,32.40
2018-08-10T17:32:04.529Z,33.10
2018-08-10T17:34:32.944Z,32.80
2018-08-10T17:37:01.406Z,32.80
2018-08-10T17:39:29.789Z,32.90
2018-08-10T17:41:58.213Z,33.40
2018-08-10T17:44:26.649Z,33.80
2018-08-10T17:46:55.190Z,34.20
2018-08-10T17:49:23.486Z,33.50
2018-08-10T17:51:51.874Z,33.60
2018-08-10T17:54:21.187Z,33.40
2018-08-10T17:56:49.683Z,33.00
2018-08-10T17:59:18.231Z,33.20
2018-08-10T18:01:46.700Z,33.20
2018-08-10T18:04:15.139Z,33.80
2018-08-10T18:06:43.578Z,33.90
2018-08-10T18:09:12.092Z,33.40
2018-08-10T18:11:40.622Z,33.80
2018-08-10T18:14:09.249Z,34.20
2018-08-10T18:16:37.722Z,34.30
2018-08-10T18:19:06.316Z,34.20
2018-08-10T18:21:34.882Z,34.20
2018-08-10T18:24:03.397Z,33.70
2018-08-10T18:26:31.873Z,34.40
2018-08-10T18:29:00.428Z,35.10
2018-08-10T18:31:28.789Z,35.60
2018-08-10T18:33:57.268Z,35.10
2018-08-10T18:36:25.805Z,35.60
2018-08-10T18:38:54.252Z,35.60
2018-08-10T18:41:22.678Z,35.70
2018-08-10T18:43:51.105Z,35.90
2018-08-10T18:46:19.501Z,35.20
2018-08-10T18:48:47.986Z,35.80
2018-08-10T18:51:16.438Z,35.90
2018-08-10T18:53:44.809Z,35.90
2018-08-10T18:56:13.252Z,36.10
2018-08-10T18:58:41.715Z,36.20
2018-08-10T19:01:10.341Z,36.30
2018-08-10T19:03:38.765Z,36.40
2018-08-10T19:06:07.324Z,36.70
2018-08-10T19:08:35.996Z,36.50
2018-08-10T19:11:04.522Z,36.70
2018-08-10T19:13:32.990Z,36.40
2018-08-10T19:16:01.412Z,36.80
2018-08-10T19:18:29.953Z,36.50
2018-08-10T19:20:58.361Z,36.90
2018-08-10T19:23:26.776Z,37.30
2018-08-10T19:25:55.225Z,37.30
2018-08-10T19:28:23.614Z,37.10
2018-08-10T19:30:52.048Z,37.10
2018-08-10T19:33:20.558Z,37.70
2018-08-10T19:35:48.934Z,38.50
2018-08-10T19:38:17.314Z,38.60
2018-08-10T19:40:45.699Z,38.50
2018-08-10T19:43:14.373Z,39.10
2018-08-10T19:45:42.976Z,39.10
2018-08-10T19:48:11.672Z,39.50
2018-08-10T19:50:40.165Z,39.10
2018-08-10T19:53:08.598Z,39.20
2018-08-10T19:55:36.974Z,39.40
2018-08-10T19:58:06.982Z,39.60
2018-08-10T20:00:35.428Z,39.90
2018-08-10T20:03:04.270Z,39.90
2018-08-10T20:05:32.708Z,40.40
2018-08-10T20:08:01.100Z,40.50
2018-08-10T20:10:29.527Z,41.00
2018-08-10T20:12:57.905Z,41.20
2018-08-10T20:15:27.482Z,40.90
2018-08-10T20:17:55.988Z,41.30
2018-08-10T20:20:24.476Z,41.50
2018-08-10T20:22:52.921Z,41.70
2018-08-10T20:25:21.434Z,41.60
2018-08-10T20:27:49.852Z,42.30
2018-08-10T20:30:18.793Z,42.50
2018-08-10T20:32:48.033Z,42.30
2018-08-10T20:35:18.541Z,42.50
2018-08-10T20:37:47.122Z,43.20
2018-08-10T20:40:17.582Z,43.60
2018-08-10T20:42:46.907Z,43.60
2018-08-10T20:45:16.554Z,43.40
2018-08-10T20:47:45.067Z,43.40
2018-08-10T20:50:15.797Z,43.40
2018-08-10T20:52:44.812Z,43.80
2018-08-10T20:55:13.463Z,44.00
2018-08-10T20:57:42.794Z,44.30
2018-08-10T21:00:11.607Z,44.50
2018-08-10T21:02:41.546Z,45.20
2018-08-10T21:05:10.351Z,45.20
2018-08-10T21:07:38.713Z,45.20
2018-08-10T21:10:10.497Z,45.20
2018-08-10T21:12:39.571Z,45.20
2018-08-10T21:15:09.285Z,45.20
2018-08-10T21:17:37.949Z,45.20
2018-08-10T21:20:08.853Z,45.20
2018-08-10T21:22:37.343Z,45.70
2018-08-10T21:25:06.430Z,46.00
2018-08-10T21:27:35.005Z,46.90
2018-08-10T21:30:06.381Z,46.40
2018-08-10T21:32:34.881Z,46.70
2018-08-10T21:35:03.523Z,46.90
2018-08-10T21:37:32.090Z,47.10
2018-08-10T21:40:00.672Z,47.50
2018-08-10T21:42:29.182Z,47.80
2018-08-10T21:45:04.541Z,47.50
2018-08-10T21:47:33.008Z,47.70
2018-08-10T21:50:01.578Z,47.90
2018-08-10T21:52:29.971Z,48.80
2018-08-10T21:54:58.488Z,48.00
2018-08-10T21:57:27.053Z,48.00
2018-08-10T22:00:02.771Z,48.10
2018-08-10T22:02:31.288Z,48.40
2018-08-10T22:04:59.650Z,48.50
2018-08-10T22:07:28.155Z,49.00
2018-08-10T22:09:56.630Z,49.10
2018-08-10T22:12:25.204Z,49.50
2018-08-10T22:14:59.365Z,49.80
2018-08-10T22:17:33.446Z,49.60
2018-08-10T22:20:01.915Z,49.70
2018-08-10T22:22:31.247Z,50.20
2018-08-10T22:24:59.718Z,49.90
2018-08-10T22:27:28.130Z,50.30
2018-08-10T22:29:56.556Z,50.80
2018-08-10T22:32:24.986Z,50.80
2018-08-10T22:34:53.442Z,51.10
2018-08-10T22:37:21.882Z,50.70
2018-08-10T22:39:50.333Z,50.90
2018-08-10T22:42:18.947Z,51.60
2018-08-10T22:44:47.433Z,51.70
2018-08-10T22:47:16.030Z,51.70
2018-08-10T22:49:44.463Z,51.40
2018-08-10T22:52:12.856Z,51.70
2018-08-10T22:54:41.284Z,51.80
2018-08-10T22:57:09.705Z,51.80
2018-08-10T22:59:38.144Z,51.80
2018-08-10T23:02:06.584Z,51.90
2018-08-10T23:04:35.018Z,51.60
2018-08-10T23:07:03.477Z,51.50
2018-08-10T23:09:31.922Z,51.80
2018-08-10T23:12:00.386Z,52.20
2018-08-10T23:14:28.807Z,52.20
2018-08-10T23:16:57.211Z,52.10
2018-08-10T23:19:25.673Z,51.80
2018-08-10T23:21:54.167Z,52.10
2018-08-10T23:24:22.606Z,52.50
2018-08-10T23:26:51.030Z,52.70
2018-08-10T23:29:19.501Z,52.10
2018-08-10T23:31:48.010Z,52.40
2018-08-10T23:34:16.368Z,52.60
2018-08-10T23:36:44.786Z,52.80
2018-08-10T23:39:13.162Z,52.70
2018-08-10T23:41:41.564Z,52.40
2018-08-10T23:44:10.069Z,52.60
2018-08-10T23:46:38.460Z,52.30
2018-08-10T23:49:07.273Z,52.10
2018-08-10T23:51:35.823Z,52.00
2018-08-10T23:54:04.726Z,52.30
2018-08-10T23:56:33.257Z,52.90
2018-08-10T23:59:01.885Z,52.10
